Time;durP1;ratioP1;P1;durP2;ratioP2;P2;SDS_P1;SDS_P2;PMS_P1;PMS_P2;Temp;Humidity;BMP_temperature;BMP_pressure;BME280_temperature;BME280_humidity;BME280_pressure;Samples;Min_cycle;Max_cycle;Signal;HPM_P1;HPM_P2
2022/04/29 00:02:17;;;;;;;45.38;40.40;;;0.80;99.90;1.40;99447.00;;;;4983586;28;83058;-59
2022/04/29 00:04:44;;;;;;;44.25;38.75;;;0.70;99.90;1.40;99450.00;;;;4986656;28;83393;-56
2022/04/29 00:07:11;;;;;;;38.20;34.50;;;0.70;99.90;1.40;99442.00;;;;4982039;28;83295;-58
2022/04/29 00:09:38;;;;;;;39.80;35.85;;;0.70;99.90;1.40;99443.00;;;;4991763;28;84468;-57
2022/04/29 00:12:07;;;;;;;42.25;38.15;;;0.70;99.90;1.40;99439.00;;;;4989965;28;83276;-57
2022/04/29 00:14:34;;;;;;;40.78;36.67;;;0.70;99.90;1.40;99435.00;;;;4981226;28;82844;-57
2022/04/29 00:17:01;;;;;;;47.05;41.28;;;0.70;99.90;1.40;99445.00;;;;4981170;28;83182;-56
2022/04/29 00:19:27;;;;;;;43.90;39.40;;;0.70;99.90;1.30;99445.00;;;;4981022;28;83118;-57
2022/04/29 00:21:54;;;;;;;75.45;55.28;;;0.70;99.90;1.30;99448.00;;;;4981339;28;83327;-56
2022/04/29 00:24:20;;;;;;;47.30;42.25;;;0.60;99.90;1.30;99451.00;;;;4981169;28;83709;-57
2022/04/29 00:26:46;;;;;;;86.18;58.85;;;0.60;99.90;1.20;99450.00;;;;4981914;28;83743;-56
2022/04/29 00:29:12;;;;;;;52.78;46.80;;;0.60;99.90;1.20;99456.00;;;;4981258;28;82884;-55
2022/04/29 00:31:39;;;;;;;80.60;58.33;;;0.50;99.90;1.10;99438.00;;;;4981415;28;82657;-56
2022/04/29 00:34:06;;;;;;;58.20;48.00;;;0.50;99.90;1.10;99439.00;;;;4981011;28;84649;-56
2022/04/29 00:36:33;;;;;;;57.42;47.83;;;0.50;99.90;1.10;99440.00;;;;4981851;28;83245;-55
2022/04/29 00:38:59;;;;;;;42.35;38.08;;;0.50;99.90;1.00;99449.00;;;;4981401;28;82938;-57
2022/04/29 00:41:26;;;;;;;49.83;43.95;;;0.40;99.90;1.00;99449.00;;;;4981787;28;82726;-57
2022/04/29 00:44:08;;;;;;;64.35;54.55;;;0.40;99.90;1.00;99442.00;;;;4980516;28;84917;-53
2022/04/29 00:46:45;;;;;;;102.95;68.07;;;0.40;99.90;1.10;99446.00;;;;4980397;28;84275;-52
2022/04/29 00:49:16;;;;;;;63.92;52.47;;;0.40;99.90;1.10;99450.00;;;;4981218;28;82826;-52
2022/04/29 00:51:49;;;;;;;72.25;57.72;;;0.50;99.90;1.10;99446.00;;;;4982096;28;83188;-52
2022/04/29 00:54:28;;;;;;;66.88;54.83;;;0.40;99.90;1.10;99435.00;;;;4982225;28;82948;-55
2022/04/29 00:56:57;;;;;;;74.13;58.75;;;0.40;99.90;1.20;99440.00;;;;4981296;28;84570;-56
2022/04/29 00:59:54;;;;;;;77.30;61.58;;;0.50;99.90;1.20;99447.00;;;;4963286;28;83305;-56
2022/04/29 01:02:21;;;;;;;61.55;51.92;;;0.60;99.90;1.30;99443.00;;;;4997042;28;82723;-56
2022/04/29 01:05:06;;;;;;;60.63;50.42;;;0.70;99.90;1.40;99439.00;;;;4988378;28;84207;-54
2022/04/29 01:07:37;;;;;;;66.13;53.33;;;0.70;99.90;1.40;99445.00;;;;4990766;28;84109;-57
2022/04/29 01:10:06;;;;;;;90.95;61.65;;;0.80;99.90;1.40;99434.00;;;;4978077;28;82978;-53
2022/04/29 01:12:37;;;;;;;82.47;55.35;;;0.70;99.90;1.40;99436.00;;;;4976747;28;82627;-55
2022/04/29 01:15:09;;;;;;;405.02;111.93;;;0.70;99.90;1.30;99437.00;;;;4967338;28;82892;-53
2022/04/29 01:17:38;;;;;;;62.72;45.95;;;0.60;99.90;1.30;99438.00;;;;4998485;28;87515;-55
2022/04/29 01:20:07;;;;;;;79.22;49.85;;;0.60;99.90;1.20;99443.00;;;;4983342;28;85325;-55
2022/04/29 01:22:34;;;;;;;103.28;57.13;;;0.50;99.90;1.20;99438.00;;;;4983286;28;82722;-55
2022/04/29 01:25:03;;;;;;;90.72;55.67;;;0.50;99.90;1.10;99434.00;;;;4983596;28;84615;-61
2022/04/29 01:27:30;;;;;;;84.85;52.85;;;0.50;99.90;1.10;99425.00;;;;4999865;28;83571;-62
2022/04/29 01:30:06;;;;;;;81.47;52.75;;;0.40;99.90;1.00;99430.00;;;;4999870;28;83660;-62
2022/04/29 01:32:36;;;;;;;87.32;54.97;;;0.40;99.90;1.10;99430.00;;;;4999582;28;83340;-61
2022/04/29 01:35:06;;;;;;;105.53;61.25;;;0.40;99.90;1.10;99424.00;;;;4999109;28;83201;-61
2022/04/29 01:37:32;;;;;;;83.75;57.33;;;0.40;99.90;1.10;99439.00;;;;4999436;28;84469;-56
2022/04/29 01:39:59;;;;;;;103.15;62.78;;;0.50;99.90;1.10;99422.00;;;;4982535;28;82907;-57
2022/04/29 01:42:27;;;;;;;127.35;66.13;;;0.50;99.90;1.20;99435.00;;;;4999911;28;82679;-56
2022/04/29 01:44:54;;;;;;;208.93;82.95;;;0.50;99.90;1.30;99426.00;;;;4949907;28;85204;-57
2022/04/29 01:47:22;;;;;;;169.05;78.43;;;0.60;99.90;1.30;99429.00;;;;4966684;28;83866;-57
2022/04/29 01:50:00;;;;;;;518.08;123.85;;;0.60;99.90;1.30;99440.00;;;;4978958;28;82780;-54
2022/04/29 01:52:27;;;;;;;1958.25;315.55;;;0.60;99.90;1.30;99436.00;;;;4998223;28;85146;-53
2022/04/29 01:54:53;;;;;;;397.17;100.57;;;0.60;99.90;1.30;99428.00;;;;4998561;28;85106;-62
2022/04/29 01:57:20;;;;;;;985.17;185.55;;;0.60;99.90;1.30;99418.00;;;;4998067;28;85429;-57
2022/04/29 01:59:46;;;;;;;611.22;129.35;;;0.60;99.90;1.30;99428.00;;;;4982475;28;85963;-54
2022/04/29 02:02:38;;;;;;;1418.65;207.70;;;0.50;99.90;1.30;99423.00;;;;4983196;28;85412;-56
2022/04/29 02:05:05;;;;;;;1176.72;203.60;;;0.60;99.90;1.20;99431.00;;;;5007247;28;85182;-55
2022/04/29 02:07:32;;;;;;;519.63;119.13;;;0.60;99.90;1.20;99444.00;;;;4988388;28;86996;-56
2022/04/29 02:09:58;;;;;;;784.45;143.63;;;0.50;99.90;1.20;99438.00;;;;5009389;28;85455;-56
2022/04/29 02:12:25;;;;;;;970.65;166.65;;;0.50;99.90;1.20;99435.00;;;;5008184;28;85525;-56
2022/04/29 02:14:55;;;;;;;406.30;98.55;;;0.40;99.90;1.10;99428.00;;;;4981933;28;85158;-54
2022/04/29 02:17:25;;;;;;;540.15;117.20;;;0.50;99.90;1.10;99436.00;;;;4998571;28;83088;-57
2022/04/29 02:19:51;;;;;;;782.30;143.80;;;0.40;99.90;1.10;99439.00;;;;4996799;28;85670;-55
2022/04/29 02:22:18;;;;;;;1034.70;177.73;;;0.40;99.90;1.10;99437.00;;;;4997502;28;85126;-57
2022/04/29 02:24:44;;;;;;;784.45;138.48;;;0.40;99.90;1.20;99432.00;;;;4997683;28;85478;-57
2022/04/29 02:27:10;;;;;;;362.55;88.90;;;0.40;99.90;1.20;99446.00;;;;4981878;28;85723;-55
2022/04/29 02:29:39;;;;;;;442.15;99.15;;;0.50;99.90;1.20;99443.00;;;;4998759;28;85341;-58
2022/04/29 02:32:14;;;;;;;1167.72;195.52;;;0.50;99.90;1.30;99422.00;;;;4999187;28;83350;-58
2022/04/29 02:34:41;;;;;;;1029.72;183.15;;;0.50;99.90;1.30;99440.00;;;;4982296;28;85589;-58
2022/04/29 02:37:09;;;;;;;424.92;105.28;;;0.60;99.90;1.40;99435.00;;;;4997477;28;86294;-59
2022/04/29 02:39:37;;;;;;;1190.00;191.48;;;0.60;99.90;1.50;99442.00;;;;4980662;28;86479;-56
2022/04/29 02:42:07;;;;;;;1003.88;181.40;;;0.70;99.90;1.50;99436.00;;;;4981807;28;85395;-58
2022/04/29 02:44:33;;;;;;;1864.10;290.08;;;0.70;99.90;1.60;99436.00;;;;4997190;28;85199;-59
2022/04/29 02:47:09;;;;;;;1524.10;235.20;;;0.80;99.90;1.60;99441.00;;;;4997106;28;85728;-59
2022/04/29 02:49:42;;;;;;;863.03;167.40;;;0.80;99.90;1.60;99441.00;;;;4997282;28;85150;-60
2022/04/29 02:52:12;;;;;;;1037.38;196.15;;;0.80;99.90;1.80;99438.00;;;;4980319;28;85130;-59
2022/04/29 02:54:40;;;;;;;946.25;216.10;;;0.90;99.90;1.90;99431.00;;;;4997435;28;85625;-59
2022/04/29 02:57:14;;;;;;;1724.22;367.17;;;1.00;99.90;2.20;99427.00;;;;4996661;28;85816;-59
2022/04/29 02:59:44;;;;;;;1999.90;494.02;;;1.20;99.90;2.60;99433.00;;;;4996442;28;86319;-58
2022/04/29 03:02:11;;;;;;;1546.57;335.88;;;1.40;99.90;2.80;99435.00;;;;4996925;28;85572;-59
2022/04/29 03:04:39;;;;;;;1954.30;367.58;;;1.60;99.90;2.90;99447.00;;;;4983172;28;85815;-62
2022/04/29 03:07:05;;;;;;;1999.90;588.97;;;1.70;99.90;3.00;99448.00;;;;4996370;28;86105;-57
2022/04/29 03:09:48;;;;;;;1999.90;523.67;;;1.80;99.90;3.00;99453.00;;;;4997616;28;85383;-58
2022/04/29 03:12:15;;;;;;;985.65;225.43;;;1.80;99.90;3.00;99448.00;;;;4996888;28;85234;-58
2022/04/29 03:14:42;;;;;;;1719.53;302.90;;;1.90;99.90;3.10;99453.00;;;;4996588;28;85840;-59
2022/04/29 03:18:17;;;;;;;1999.90;544.03;;;1.90;99.90;3.30;99434.00;;;;4980765;28;85054;-60
2022/04/29 03:19:59;;;;;;;1999.90;629.38;;;2.10;99.90;4.00;99461.00;;;;4979911;28;85797;-60
2022/04/29 03:22:26;;;;;;;873.63;202.77;;;2.50;99.90;3.90;99456.00;;;;4979961;28;85643;-58
2022/04/29 03:24:54;;;;;;;1999.90;435.38;;;2.50;99.90;3.90;99458.00;;;;4963480;28;85473;-59
2022/04/29 03:27:20;;;;;;;732.45;172.00;;;2.60;99.90;4.20;99459.00;;;;4981295;28;85814;-60
2022/04/29 03:29:47;;;;;;;461.67;93.82;;;2.80;99.90;4.20;99456.00;;;;4995539;28;86319;-57
2022/04/29 03:32:13;;;;;;;168.70;40.08;;;2.80;99.90;4.30;99463.00;;;;4997899;28;82703;-60
2022/04/29 03:34:59;;;;;;;57.95;27.48;;;2.80;99.90;4.60;99470.00;;;;4982593;28;82643;-59
2022/04/29 03:37:25;;;;;;;153.48;33.10;;;3.10;99.90;4.60;99470.00;;;;4998048;28;83292;-59
2022/04/29 03:39:53;;;;;;;105.47;28.73;;;3.20;99.90;4.90;99476.00;;;;4997433;28;82908;-61
2022/04/29 03:42:20;;;;;;;30.27;18.13;;;3.30;99.90;5.10;99481.00;;;;4997797;28;82948;-56
2022/04/29 03:44:47;;;;;;;114.28;25.13;;;3.50;99.90;5.50;99477.00;;;;4997340;28;83325;-57
2022/04/29 03:47:15;;;;;;;32.35;18.63;;;3.90;99.90;5.80;99475.00;;;;4981193;28;83239;-59
2022/04/29 03:50:08;;;;;;;70.18;18.65;;;4.00;99.90;6.40;99486.00;;;;4975538;28;83221;-59
2022/04/29 03:52:53;;;;;;;60.35;18.98;;;4.30;99.90;7.10;99475.00;;;;4982077;28;82720;-60
2022/04/29 03:55:24;;;;;;;37.38;16.30;;;4.80;99.90;7.30;99469.00;;;;4981320;28;84558;-61
2022/04/29 03:57:53;;;;;;;34.35;15.85;;;5.00;99.90;7.70;99471.00;;;;4996400;28;83460;-59
2022/04/29 04:00:21;;;;;;;37.92;17.73;;;5.30;99.90;7.90;99481.00;;;;4997197;28;84916;-60
2022/04/29 04:02:52;;;;;;;22.98;16.50;;;5.40;99.90;8.10;99474.00;;;;4980625;28;83122;-59
2022/04/29 04:05:19;;;;;;;21.00;14.15;;;5.50;99.90;8.20;99472.00;;;;4983494;28;82831;-59
2022/04/29 04:07:46;;;;;;;25.25;15.32;;;5.50;99.90;8.40;99479.00;;;;4964213;28;83296;-59
2022/04/29 04:10:41;;;;;;;15.45;12.60;;;5.70;99.90;8.70;99477.00;;;;4996217;28;83950;-60
2022/04/29 04:13:13;;;;;;;25.67;15.60;;;6.00;99.90;8.90;99486.00;;;;5004899;28;82569;-60
2022/04/29 04:16:01;;;;;;;19.23;14.27;;;6.10;99.90;8.90;99489.00;;;;4995793;28;83664;-60
2022/04/29 04:18:28;;;;;;;17.70;14.27;;;6.10;99.90;8.90;99485.00;;;;4996492;28;84366;-60
2022/04/29 04:20:54;;;;;;;14.40;11.60;;;6.20;99.90;8.90;99491.00;;;;4995924;28;83033;-60
2022/04/29 04:23:20;;;;;;;19.88;13.85;;;6.10;99.90;8.90;99493.00;;;;4996558;28;83966;-60
2022/04/29 04:25:47;;;;;;;17.95;11.65;;;6.10;99.90;9.00;99488.00;;;;4996410;28;82742;-61
2022/04/29 04:28:16;;;;;;;19.80;13.05;;;6.20;99.90;9.10;99493.00;;;;4996552;28;84246;-59
2022/04/29 04:30:54;;;;;;;18.45;13.73;;;6.30;99.90;9.10;99492.00;;;;4995194;28;83843;-59
2022/04/29 04:33:25;;;;;;;18.63;13.85;;;6.30;99.90;9.30;99491.00;;;;4980058;28;82696;-60
2022/04/29 04:35:52;;;;;;;21.02;13.20;;;6.50;99.90;9.30;99500.00;;;;4996572;28;83491;-59
2022/04/29 04:38:19;;;;;;;19.08;13.02;;;6.60;99.90;9.50;99495.00;;;;4997221;28;83252;-61
2022/04/29 04:40:59;;;;;;;16.48;12.85;;;6.80;99.90;9.50;99500.00;;;;4997663;28;85105;-60
2022/04/29 04:43:27;;;;;;;18.42;13.13;;;6.80;99.90;9.50;99510.00;;;;4984113;28;83073;-59
2022/04/29 04:45:54;;;;;;;17.70;13.35;;;6.90;99.90;9.60;99512.00;;;;4999767;28;83493;-60
2022/04/29 04:48:41;;;;;;;17.75;12.93;;;7.00;99.90;9.40;99498.00;;;;4984354;28;84409;-60
2022/04/29 04:51:10;;;;;;;19.85;12.15;;;6.80;99.90;9.40;99504.00;;;;4984678;28;83315;-61
2022/04/29 04:53:40;;;;;;;16.75;11.55;;;6.90;99.90;9.40;99506.00;;;;4999986;28;83182;-59
2022/04/29 04:56:06;;;;;;;15.93;10.48;;;7.10;99.90;9.50;99512.00;;;;4999995;28;82976;-59
2022/04/29 04:58:34;;;;;;;15.82;10.60;;;7.00;99.90;9.40;99514.00;;;;4999712;28;83426;-59
2022/04/29 05:01:02;;;;;;;19.67;10.60;;;7.10;99.90;9.10;99516.00;;;;4984612;28;83012;-60
2022/04/29 05:03:46;;;;;;;14.23;9.23;;;6.90;99.90;8.70;99504.00;;;;4984437;28;82905;-60
2022/04/29 05:06:31;;;;;;;12.65;9.68;;;6.80;99.90;8.40;99511.00;;;;4989477;28;82339;-59
2022/04/29 05:08:58;;;;;;;15.35;9.02;;;6.80;99.90;8.30;99514.00;;;;4994757;28;82348;-59
2022/04/29 05:11:24;;;;;;;9.20;7.35;;;7.00;99.90;7.90;99508.00;;;;4986166;28;82997;-60
2022/04/29 05:13:54;;;;;;;9.18;6.53;;;6.80;99.90;7.60;99507.00;;;;5009810;28;84507;-60
2022/04/29 05:16:20;;;;;;;8.07;6.40;;;6.60;99.90;7.50;99509.00;;;;5000391;28;82726;-59
2022/04/29 05:19:19;;;;;;;10.50;6.85;;;6.60;99.90;7.30;99508.00;;;;4971866;28;82287;-59
2022/04/29 05:21:46;;;;;;;7.10;5.07;;;6.60;99.90;7.20;99516.00;;;;4999574;28;82700;-59
2022/04/29 05:24:12;;;;;;;6.85;4.93;;;6.40;99.90;7.10;99524.00;;;;5000117;28;82429;-59
2022/04/29 05:26:57;;;;;;;8.07;5.57;;;6.40;99.90;7.10;99522.00;;;;4985058;28;82656;-60
2022/04/29 05:29:41;;;;;;;6.32;5.00;;;6.40;99.90;7.10;99513.00;;;;4985417;28;82177;-58
2022/04/29 05:32:26;;;;;;;9.63;5.60;;;6.40;99.90;7.10;99513.00;;;;4984873;28;82275;-61
2022/04/29 05:35:11;;;;;;;5.75;4.60;;;6.40;99.90;7.10;99501.00;;;;4975246;28;82239;-59
2022/04/29 05:37:56;;;;;;;7.43;4.70;;;6.50;99.90;7.20;99503.00;;;;4984482;28;83113;-60
2022/04/29 05:43:10;;;;;;;11.07;4.03;;;6.70;99.90;7.40;99504.00;;;;4984736;28;82109;-60
2022/04/29 05:45:36;;;;;;;4.88;3.67;;;6.80;99.90;7.40;99505.00;;;;4983459;28;82101;-59
2022/04/29 05:48:04;;;;;;;5.72;2.55;;;6.80;99.90;7.20;99505.00;;;;5000596;28;82593;-60
2022/04/29 05:50:32;;;;;;;4.95;3.15;;;6.60;99.90;7.30;99511.00;;;;5016382;28;82277;-59
2022/04/29 05:52:59;;;;;;;7.10;2.85;;;6.60;99.90;7.40;99509.00;;;;4999532;28;81835;-61
2022/04/29 05:55:26;;;;;;;8.32;3.50;;;6.80;99.90;7.30;99510.00;;;;5000495;28;81917;-58
2022/04/29 05:57:56;;;;;;;6.28;3.40;;;6.70;99.90;7.30;99510.00;;;;4982464;28;82387;-60
2022/04/29 06:00:23;;;;;;;6.68;3.10;;;6.60;99.90;7.10;99514.00;;;;4999671;28;82226;-60
2022/04/29 06:03:01;;;;;;;6.43;3.47;;;6.30;99.90;7.10;99512.00;;;;4999588;28;83156;-60
2022/04/29 06:05:29;;;;;;;7.97;3.50;;;6.40;99.90;7.30;99506.00;;;;4989437;28;82217;-60
2022/04/29 06:07:56;;;;;;;8.60;3.70;;;6.60;99.90;7.40;99501.00;;;;4983946;28;81942;-60
2022/04/29 06:10:28;;;;;;;7.95;3.28;;;6.80;99.90;7.40;99505.00;;;;4981115;28;84111;-59
2022/04/29 06:12:55;;;;;;;6.53;2.58;;;6.80;99.90;7.60;99513.00;;;;4981230;28;82390;-60
2022/04/29 06:15:33;;;;;;;7.35;2.88;;;6.90;99.90;7.60;99516.00;;;;4980991;28;82535;-60
2022/04/29 06:18:17;;;;;;;8.95;2.60;;;7.00;99.90;7.70;99512.00;;;;4984437;28;82814;-60
2022/04/29 06:21:13;;;;;;;4.32;2.67;;;7.10;99.90;7.70;99517.00;;;;4992087;28;82279;-60
2022/04/29 06:23:48;;;;;;;6.60;2.40;;;7.10;99.90;7.80;99509.00;;;;4982485;28;82408;-60
2022/04/29 06:26:16;;;;;;;3.92;2.40;;;7.20;99.90;7.80;99520.00;;;;4982342;28;84515;-59
2022/04/29 06:28:42;;;;;;;9.35;3.28;;;7.10;99.90;7.80;99503.00;;;;4982462;28;83094;-59
2022/04/29 06:31:10;;;;;;;15.00;3.58;;;7.10;99.90;8.00;99509.00;;;;4998604;28;85564;-59
2022/04/29 06:33:54;;;;;;;8.57;3.10;;;7.30;99.90;8.10;99508.00;;;;4999066;28;82954;-59
2022/04/29 06:36:21;;;;;;;3.80;2.30;;;7.40;99.90;8.20;99507.00;;;;4999084;28;82423;-59
2022/04/29 06:38:53;;;;;;;3.25;2.30;;;7.50;99.90;8.30;99500.00;;;;4999236;28;84586;-59
2022/04/29 06:41:40;;;;;;;6.95;2.42;;;7.70;99.90;8.30;99506.00;;;;4983136;28;82400;-60
2022/04/29 06:44:12;;;;;;;8.52;2.92;;;7.70;99.90;8.50;99499.00;;;;4980897;28;82692;-60
2022/04/29 06:47:02;;;;;;;8.43;2.67;;;7.80;99.90;8.50;99501.00;;;;4993547;28;82626;-59
2022/04/29 06:49:47;;;;;;;13.75;2.35;;;7.90;99.90;8.50;99497.00;;;;4981905;28;84103;-59
2022/04/29 06:52:45;;;;;;;9.45;1.77;;;7.80;99.90;8.60;99488.00;;;;4970993;28;82419;-59
2022/04/29 06:55:20;;;;;;;7.22;1.67;;;7.80;83.30;8.60;99494.00;;;;4999192;28;82850;-59
2022/04/29 06:57:47;;;;;;;13.38;2.10;;;7.90;73.60;8.60;99498.00;;;;4981726;28;83158;-57
2022/04/29 07:00:14;;;;;;;6.30;1.63;;;7.90;77.70;8.50;99504.00;;;;4983101;28;85405;-59
2022/04/29 07:02:41;;;;;;;5.03;1.42;;;7.80;84.40;8.60;99492.00;;;;4982735;28;81766;-60
2022/04/29 07:05:08;;;;;;;7.95;2.15;;;7.90;79.80;8.60;99498.00;;;;4982214;28;82054;-60
2022/04/29 07:07:34;;;;;;;6.05;2.00;;;7.90;95.30;8.80;99500.00;;;;4983434;28;83992;-61
2022/04/29 07:10:21;;;;;;;6.70;1.73;;;8.10;91.60;8.80;99492.00;;;;4997367;28;82659;-60
2022/04/29 07:13:06;;;;;;;5.78;1.92;;;8.00;79.80;8.70;99502.00;;;;4982316;28;82791;-59
2022/04/29 07:15:32;;;;;;;8.68;1.98;;;8.00;74.60;8.80;99505.00;;;;4998497;28;82182;-60
2022/04/29 07:18:11;;;;;;;14.35;2.45;;;8.00;84.60;8.90;99496.00;;;;4965043;28;86378;-60
2022/04/29 07:20:38;;;;;;;7.80;1.70;;;8.10;85.40;8.90;99497.00;;;;4980866;28;83756;-61
2022/04/29 07:23:05;;;;;;;7.60;1.92;;;8.20;84.20;9.00;99497.00;;;;4997481;28;83441;-61
2022/04/29 07:25:31;;;;;;;5.03;1.20;;;8.20;78.10;8.90;99498.00;;;;4997758;28;82120;-60
2022/04/29 07:27:57;;;;;;;2.28;1.13;;;8.20;74.10;9.00;99504.00;;;;4981084;28;82148;-58
2022/04/29 07:30:24;;;;;;;4.53;1.10;;;8.20;57.30;9.00;99503.00;;;;4983455;28;82587;-60
2022/04/29 07:33:10;;;;;;;3.35;1.17;;;8.20;62.70;9.10;99494.00;;;;4976102;28;82882;-60
2022/04/29 07:41:44;;;;;;;4.65;1.73;;;8.60;80.50;9.60;99491.00;;;;4974065;28;85521;-59
2022/04/29 07:44:13;;;;;;;7.47;2.25;;;8.70;80.20;9.80;99484.00;;;;4990621;28;82286;-61
2022/04/29 07:46:45;;;;;;;13.27;2.00;;;8.90;84.80;10.10;99501.00;;;;4997951;28;83310;-59
2022/04/29 07:49:30;;;;;;;3.63;1.55;;;9.20;88.10;10.00;99483.00;;;;4982484;28;83386;-60
2022/04/29 07:51:56;;;;;;;5.60;1.50;;;9.00;78.00;9.90;99487.00;;;;4981124;28;82391;-60
2022/04/29 07:54:23;;;;;;;4.45;1.60;;;8.80;79.40;9.80;99488.00;;;;4965612;28;82937;-60
2022/04/29 07:56:49;;;;;;;6.28;1.75;;;8.80;75.80;9.80;99477.00;;;;4981185;28;82297;-59
2022/04/29 07:59:17;;;;;;;7.53;2.30;;;8.60;75.10;9.80;99479.00;;;;4980816;28;82019;-58
2022/04/29 08:01:44;;;;;;;4.97;1.50;;;8.80;81.00;10.10;99488.00;;;;4998458;28;83305;-59
2022/04/29 08:04:13;;;;;;;4.65;1.65;;;9.10;74.40;10.50;99480.00;;;;4998301;28;82421;-59
2022/04/29 08:06:39;;;;;;;8.68;1.70;;;9.60;71.50;10.80;99483.00;;;;4998106;28;82281;-59
2022/04/29 08:09:08;;;;;;;5.63;1.67;;;9.70;63.60;11.00;99474.00;;;;4998344;28;83291;-59
2022/04/29 08:11:37;;;;;;;9.63;1.60;;;10.00;58.50;11.00;99476.00;;;;4997029;28;83593;-61
2022/04/29 08:14:41;;;;;;;8.05;1.50;;;9.80;57.40;10.80;99471.00;;;;4981489;28;83609;-60
2022/04/29 08:17:21;;;;;;;4.78;1.30;;;9.70;62.60;10.70;99479.00;;;;4985472;28;82327;-60
2022/04/29 08:19:50;;;;;;;2.63;1.30;;;9.50;58.20;10.20;99484.00;;;;4984562;28;83363;-59
2022/04/29 08:22:33;;;;;;;6.43;1.50;;;9.10;57.00;10.30;99466.00;;;;5001229;28;83580;-60
2022/04/29 08:25:00;;;;;;;5.70;1.70;;;9.10;58.70;10.30;99468.00;;;;5000196;28;82130;-60
2022/04/29 08:27:29;;;;;;;5.55;1.35;;;9.10;60.30;10.40;99469.00;;;;4983682;28;82970;-60
2022/04/29 08:29:59;;;;;;;7.78;1.88;;;9.30;59.30;10.50;99459.00;;;;5000807;28;82260;-60
2022/04/29 08:32:26;;;;;;;5.30;1.40;;;9.40;62.80;10.60;99464.00;;;;5000741;28;82674;-61
2022/04/29 08:34:53;;;;;;;3.50;1.63;;;9.60;63.90;10.90;99468.00;;;;4983533;28;82506;-60
2022/04/29 08:37:21;;;;;;;6.95;1.35;;;9.90;58.60;11.20;99463.00;;;;4983723;28;83500;-61
2022/04/29 08:39:48;;;;;;;6.03;1.85;;;10.10;58.30;11.20;99464.00;;;;4966979;28;82523;-59
2022/04/29 08:42:18;;;;;;;8.15;1.73;;;10.10;53.30;11.20;99461.00;;;;4981442;28;82916;-60
2022/04/29 08:44:48;;;;;;;2.63;1.40;;;10.10;54.30;11.10;99447.00;;;;4992071;28;82594;-59
2022/04/29 08:47:40;;;;;;;2.65;1.02;;;9.90;56.10;11.00;99441.00;;;;4981014;28;82012;-58
2022/04/29 08:50:17;;;;;;;3.53;1.30;;;9.80;54.20;11.00;99450.00;;;;5017584;28;82276;-59
2022/04/29 08:52:44;;;;;;;3.05;1.45;;;9.90;54.90;11.10;99437.00;;;;4985074;28;82481;-58
2022/04/29 09:00:44;;;;;;;2.63;1.20;;;9.90;56.00;11.10;99435.00;;;;4967196;28;82690;-59
2022/04/29 09:03:22;;;;;;;5.20;1.48;;;9.90;53.90;11.10;99437.00;;;;4971325;28;84583;-59
2022/04/29 09:05:50;;;;;;;4.95;1.60;;;10.00;55.00;11.20;99430.00;;;;5000325;28;84358;-58
2022/04/29 09:08:20;;;;;;;7.10;1.65;;;10.20;56.10;11.30;99421.00;;;;4991501;28;81893;-60
2022/04/29 09:10:59;;;;;;;6.45;1.70;;;10.20;53.20;10.80;99418.00;;;;4999760;28;83396;-60
2022/04/29 09:13:27;;;;;;;6.53;1.65;;;9.70;53.30;10.80;99424.00;;;;4998948;28;82334;-60
2022/04/29 09:16:05;;;;;;;4.43;1.52;;;9.80;52.50;10.60;99420.00;;;;4957206;28;83283;-61
2022/04/29 09:18:48;;;;;;;5.25;1.27;;;9.50;51.60;10.90;99415.00;;;;4987433;28;82033;-59
2022/04/29 09:21:28;;;;;;;5.60;1.88;;;9.80;54.30;11.20;99415.00;;;;4982227;28;82473;-57
2022/04/29 09:23:57;;;;;;;10.05;1.95;;;10.10;54.20;11.50;99410.00;;;;4984587;28;82012;-59
2022/04/29 09:27:03;;;;;;;12.40;2.00;;;10.40;54.50;11.90;99417.00;;;;4976868;28;82361;-59
2022/04/29 09:29:39;;;;;;;7.38;2.03;;;10.90;55.50;12.00;99412.00;;;;4983757;28;83168;-59
2022/04/29 09:32:14;;;;;;;8.25;1.50;;;11.10;51.90;12.10;99410.00;;;;4984863;28;82369;-58
2022/04/29 09:34:58;;;;;;;7.38;1.65;;;11.00;52.00;12.00;99404.00;;;;4984694;28;82488;-58
2022/04/29 09:37:28;;;;;;;2.38;1.20;;;10.90;50.60;12.30;99409.00;;;;4984775;28;83507;-59
2022/04/29 09:40:05;;;;;;;4.13;1.45;;;11.20;47.50;12.20;99395.00;;;;5000738;28;82351;-57
2022/04/29 09:42:43;;;;;;;5.68;1.70;;;11.20;45.70;12.20;99390.00;;;;4984892;28;82406;-59
2022/04/29 09:45:21;;;;;;;3.75;1.85;;;11.10;46.80;12.40;99392.00;;;;4999690;28;83542;-58
2022/04/29 09:47:54;;;;;;;11.43;2.08;;;11.30;47.80;12.40;99412.00;;;;4973036;28;83448;-55
2022/04/29 09:50:20;;;;;;;5.28;1.60;;;11.30;49.20;12.20;99398.00;;;;4984601;28;82011;-54
2022/04/29 09:52:49;;;;;;;4.90;1.83;;;11.10;47.30;12.10;99391.00;;;;4983200;28;83714;-57
2022/04/29 09:55:19;;;;;;;4.10;1.63;;;11.20;45.70;12.00;99395.00;;;;4984258;28;83784;-56
2022/04/29 09:57:52;;;;;;;7.65;1.70;;;11.00;46.60;12.20;99388.00;;;;4983863;28;83173;-54
2022/04/29 10:00:19;;;;;;;4.25;1.60;;;11.10;47.10;12.30;99380.00;;;;4984306;28;82169;-58
2022/04/29 10:02:49;;;;;;;4.00;1.75;;;11.20;48.50;12.40;99387.00;;;;4983623;28;84402;-58
2022/04/29 10:05:16;;;;;;;6.25;1.80;;;11.40;50.80;12.70;99385.00;;;;4999252;28;82712;-58
2022/04/29 10:07:46;;;;;;;3.50;1.75;;;11.70;50.20;12.80;99377.00;;;;4998383;28;84119;-60
2022/04/29 10:10:14;;;;;;;5.72;1.73;;;11.80;48.50;12.60;99388.00;;;;4985024;28;81885;-59
2022/04/29 10:12:47;;;;;;;6.32;1.88;;;11.50;46.40;12.50;99381.00;;;;4981944;28;82158;-58
2022/04/29 10:15:20;;;;;;;3.95;1.55;;;11.50;48.30;12.40;99387.00;;;;4998175;28;82369;-56
2022/04/29 10:23:34;;;;;;;3.55;1.50;;;10.80;46.00;11.50;99395.00;;;;4982792;28;82283;-54
2022/04/29 10:26:02;;;;;;;5.78;1.60;;;10.50;44.80;11.50;99392.00;;;;4983382;28;82631;-54
2022/04/29 10:28:28;;;;;;;3.40;1.35;;;10.40;44.80;11.40;99395.00;;;;4972713;28;83260;-57
2022/04/29 10:31:06;;;;;;;4.40;2.20;;;10.30;45.10;11.30;99376.00;;;;4983750;28;82215;-59
2022/04/29 10:33:33;;;;;;;4.15;1.70;;;10.20;45.20;11.30;99388.00;;;;4983560;28;82402;-58
2022/04/29 10:36:07;;;;;;;5.78;2.05;;;10.30;47.10;11.00;99382.00;;;;4983655;28;83770;-57
2022/04/29 10:38:41;;;;;;;4.85;1.52;;;9.90;47.40;11.00;99368.00;;;;4983111;28;82460;-58
2022/04/29 10:41:24;;;;;;;2.85;1.77;;;10.00;47.80;11.20;99367.00;;;;4983342;28;82516;-58
2022/04/29 10:43:51;;;;;;;4.70;2.15;;;10.10;47.40;11.20;99365.00;;;;4982525;28;83367;-57
2022/04/29 10:46:38;;;;;;;5.93;1.65;;;10.20;46.00;11.40;99361.00;;;;4982781;28;84932;-57
2022/04/29 10:49:30;;;;;;;4.00;2.28;;;10.40;45.40;11.70;99359.00;;;;4980465;28;83314;-57
2022/04/29 10:52:27;;;;;;;4.60;1.98;;;10.70;47.00;11.90;99353.00;;;;4985868;28;82142;-57
2022/04/29 10:55:01;;;;;;;3.42;1.67;;;10.90;45.80;11.90;99373.00;;;;4983229;28;82251;-58
2022/04/29 10:57:50;;;;;;;;;;;10.80;43.40;11.90;99372.00;;;;4983426;28;83310;-57
2022/04/29 11:00:23;;;;;;;4.82;1.58;;;10.80;45.80;11.90;99375.00;;;;4999711;28;82090;-57
2022/04/29 11:02:53;;;;;;;7.30;1.88;;;10.80;44.90;11.80;99378.00;;;;4999056;28;81986;-57
2022/04/29 11:05:36;;;;;;;10.60;2.15;;;10.80;45.70;11.70;99357.00;;;;4983958;28;82180;-57
2022/04/29 11:08:10;;;;;;;11.82;2.72;;;10.80;45.00;11.80;99353.00;;;;4983541;28;82483;-57
2022/04/29 11:10:58;;;;;;;14.32;2.60;;;10.80;47.70;11.80;99362.00;;;;4984334;28;82880;-56
2022/04/29 11:13:27;;;;;;;3.08;1.50;;;10.80;45.70;11.90;99360.00;;;;4981904;28;82884;-57
2022/04/29 11:16:15;;;;;;;4.20;1.42;;;10.90;44.90;11.80;99345.00;;;;4983246;28;82169;-57
2022/04/29 11:19:45;;;;;;;5.68;1.58;;;10.80;45.00;12.00;99351.00;;;;4981357;28;84614;-56
2022/04/29 11:25:04;;;;;;;4.85;1.58;;;11.00;44.60;12.40;99344.00;;;;4979181;28;82371;-59
2022/04/29 11:27:40;;;;;;;3.15;1.40;;;11.40;45.30;12.50;99345.00;;;;4983185;28;83529;-58
2022/04/29 11:30:38;;;;;;;3.70;1.70;;;11.40;44.30;12.40;99341.00;;;;4975025;28;82834;-53
2022/04/29 11:33:13;;;;;;;4.45;1.63;;;11.30;44.00;12.30;99342.00;;;;4983026;28;83538;-56
2022/04/29 11:35:42;;;;;;;6.65;2.00;;;11.10;43.30;12.50;99330.00;;;;4983176;28;82015;-57
2022/04/29 11:38:10;;;;;;;9.73;2.17;;;11.40;43.80;12.60;99330.00;;;;4982924;28;81992;-56
2022/04/29 11:40:40;;;;;;;7.35;2.00;;;11.60;44.00;13.00;99326.00;;;;4982343;28;83222;-57
2022/04/29 11:43:10;;;;;;;4.07;1.67;;;12.00;44.90;13.20;99324.00;;;;4982682;28;83287;-57